Fort Worth Nas Jrb/Carswell field
KNFW : now visible

Airfield :











YOU CAN JOIN US ON...

 
LOGIN :

Register | Disclaimer

   EN    FR    IT 

 









Legend :    VFR   Marginal VFR   IFR   Intensive IFR   Very Intensive IFR
Visi :
Ceiling :
>= 8 km
>= 3000ft
5 to 8 km
1000 to 3000 ft
1500m to 5 km
500 to 1000 ft
800 to 1500m
200 to 500 ft
< 800m
< 200 ft
Symbols :   Thunderstorms  Fog  Heavy snow  Heavy precipitations  Wind > 20 kt







- Airport Elevation : 650 ft


KNFW - Fort Worth Nas Jrb/Carswell field

CURRENT METAR :
  • 201952Z 18016G22KT 10SM SCT050 36/20 A2988 RMK AO2 SLP102 T03610200 CHINO N VISNO N $

EXPIRED METARs :
  • 201852Z 16014KT 10SM FEW042 SCT055 36/21 A2991 RMK AO2 SLP112 T03560206 CHINO N VISNO N $
  • 201752Z 17014KT 10SM SCT045 34/21 A2993 RMK AO2 SLP120 T03390211 10344 20256 58009 VISNO N $

TAF TAF KNFW
Valid from the 20 at 15:00 until the 21 at 15:00 UTC


2015/2115 17013KT 9999 VCSH BKN015 OVC250 QNH2988INS
BECMG 2017/2019 16012KT 9999 VCSH BKN035 QNH2986INS
BECMG 2021/2023 16012KT 9999 VCTS SCT060CB QNH2994INS
BECMG 2102/2104 15010KT 9999 NSW SCT035 QNH996INS T32/2022Z T23/2013Z FN20047
No reported NOTAMs for that airfield.



MET'MAP, your aeronautical weather chart ! - Copyright ORBIFLY December 2007 - Disclaimer

ORBIFLY MET'MAP TEAM :

Programming & Development : Alexandra Zaïnal
Concept & Development : Baudouin d'Aumeries
Co-Development & Prog : Marc-Olivier Méhu
Technical & hardware support : Manuel Goepfert

Contact : metmap@orbifly.com




SOURCES & CREDITS :

   NOAA       Earth
Advisory